Time;durP1;ratioP1;P1;durP2;ratioP2;P2;SDS_P1;SDS_P2;PMS_P1;PMS_P2;Temp;Humidity;BMP_temperature;BMP_pressure;BME280_temperature;BME280_humidity;BME280_pressure;Samples;Min_cycle;Max_cycle;Signal;HPM_P1;HPM_P2
2021/03/02 00:00:44;;;;;;;10.27;7.30;;;;;;;;;;5039607;28;20087;-71
2021/03/02 00:03:10;;;;;;;12.30;7.80;;;;;;;;;;5056506;28;20029;-71
2021/03/02 00:05:35;;;;;;;11.43;7.90;;;;;;;;;;5056603;28;20025;-71
2021/03/02 00:08:00;;;;;;;12.93;7.53;;;;;;;;;;5056559;28;20013;-70
2021/03/02 00:10:25;;;;;;;9.98;7.13;;;;;;;;;;5056521;28;20052;-71
2021/03/02 00:12:51;;;;;;;12.55;7.03;;;;;;;;;;5056462;28;20032;-72
2021/03/02 00:15:16;;;;;;;11.80;7.30;;;;;;;;;;5054107;28;20045;-72
2021/03/02 00:17:48;;;;;;;12.00;7.40;;;;;;;;;;5056351;28;20099;-71
2021/03/02 00:20:15;;;;;;;11.68;6.68;;;;;;;;;;5056325;28;20083;-71
2021/03/02 00:22:49;;;;;;;11.27;7.30;;;;;;;;;;5056253;28;20052;-71
2021/03/02 00:25:14;;;;;;;9.38;7.00;;;;;;;;;;5056286;28;20350;-70
2021/03/02 00:27:43;;;;;;;11.45;7.75;;;;;;;;;;5056540;28;20017;-71
2021/03/02 00:30:09;;;;;;;12.40;7.55;;;;;;;;;;5056193;28;20017;-71
2021/03/02 00:32:34;;;;;;;12.77;7.18;;;;;;;;;;5056379;28;20043;-71
2021/03/02 00:34:59;;;;;;;11.80;7.32;;;;;;;;;;5056154;28;20027;-70
2021/03/02 00:37:25;;;;;;;10.02;6.80;;;;;;;;;;5056077;28;20031;-70
2021/03/02 00:39:50;;;;;;;10.85;7.30;;;;;;;;;;5055979;28;20099;-70
2021/03/02 00:42:15;;;;;;;12.13;8.02;;;;;;;;;;5055923;28;20020;-70
2021/03/02 00:44:41;;;;;;;11.40;7.43;;;;;;;;;;5055856;28;20032;-70
2021/03/02 00:47:08;;;;;;;12.50;7.45;;;;;;;;;;5055869;28;20028;-70
2021/03/02 00:49:34;;;;;;;12.95;7.95;;;;;;;;;;5055898;28;20461;-70
2021/03/02 00:51:59;;;;;;;13.25;8.85;;;;;;;;;;5055907;28;20024;-71
2021/03/02 00:54:24;;;;;;;14.50;9.38;;;;;;;;;;5056001;28;20059;-70
2021/03/02 00:56:50;;;;;;;16.10;9.57;;;;;;;;;;5038131;28;20553;-70
2021/03/02 00:59:15;;;;;;;11.98;8.55;;;;;;;;;;5055591;28;20503;-71
2021/03/02 01:01:42;;;;;;;12.98;8.13;;;;;;;;;;5055559;28;20408;-71
2021/03/02 01:04:08;;;;;;;15.50;8.98;;;;;;;;;;5055505;28;20108;-71
2021/03/02 01:06:33;;;;;;;14.48;9.27;;;;;;;;;;5055476;28;20048;-71
2021/03/02 01:08:58;;;;;;;15.55;8.60;;;;;;;;;;5052495;28;20432;-72
2021/03/02 01:11:23;;;;;;;11.55;7.55;;;;;;;;;;5047525;28;20020;-71
2021/03/02 01:13:49;;;;;;;14.38;8.65;;;;;;;;;;5045231;28;20417;-70
2021/03/02 01:16:14;;;;;;;13.95;8.05;;;;;;;;;;5043888;28;20417;-72
2021/03/02 01:18:39;;;;;;;12.48;8.25;;;;;;;;;;5045909;28;20052;-71
2021/03/02 01:21:04;;;;;;;10.27;7.68;;;;;;;;;;5043225;28;20017;-72
2021/03/02 01:23:32;;;;;;;12.30;7.85;;;;;;;;;;5047670;28;20468;-71
2021/03/02 01:25:57;;;;;;;13.38;7.18;;;;;;;;;;5054442;28;20357;-71
2021/03/02 01:28:22;;;;;;;13.30;7.47;;;;;;;;;;5055159;28;20024;-71
2021/03/02 01:30:48;;;;;;;13.00;7.43;;;;;;;;;;5054664;28;20376;-71
2021/03/02 01:33:15;;;;;;;11.75;6.95;;;;;;;;;;5054844;28;20429;-72
2021/03/02 01:35:40;;;;;;;10.73;6.55;;;;;;;;;;5054994;28;20033;-71
2021/03/02 01:38:08;;;;;;;12.10;7.65;;;;;;;;;;5053850;28;20081;-71
2021/03/02 01:40:35;;;;;;;12.13;7.72;;;;;;;;;;5054846;28;20028;-70
2021/03/02 01:43:00;;;;;;;10.95;7.97;;;;;;;;;;5037199;28;20036;-71
2021/03/02 01:45:26;;;;;;;11.20;8.02;;;;;;;;;;5047524;28;20025;-70
2021/03/02 01:47:54;;;;;;;10.25;7.70;;;;;;;;;;5054609;28;20050;-71
2021/03/02 01:50:20;;;;;;;12.05;7.78;;;;;;;;;;5045718;28;20017;-70
2021/03/02 01:52:45;;;;;;;11.50;7.30;;;;;;;;;;5047845;28;20033;-71
2021/03/02 01:55:11;;;;;;;11.13;7.97;;;;;;;;;;5048182;28;20025;-72
2021/03/02 01:57:36;;;;;;;10.75;7.60;;;;;;;;;;5033742;28;20056;-71
2021/03/02 02:00:12;;;;;;;10.57;7.75;;;;;;;;;;5040771;28;20368;-72
2021/03/02 02:02:39;;;;;;;12.48;8.13;;;;;;;;;;5029425;28;20037;-71
2021/03/02 02:05:06;;;;;;;9.48;7.90;;;;;;;;;;5024025;28;20079;-71
2021/03/02 02:07:51;;;;;;;11.07;7.82;;;;;;;;;;5045155;28;20461;-71
2021/03/02 02:10:21;;;;;;;11.00;8.48;;;;;;;;;;5060312;28;20033;-71
2021/03/02 02:12:51;;;;;;;11.80;8.20;;;;;;;;;;5052863;28;20020;-71
2021/03/02 02:15:21;;;;;;;12.35;8.15;;;;;;;;;;5054055;28;20041;-71
2021/03/02 02:17:48;;;;;;;10.88;8.27;;;;;;;;;;5054176;28;20029;-71
2021/03/02 02:20:21;;;;;;;14.60;8.35;;;;;;;;;;5054268;28;20025;-71
2021/03/02 02:23:05;;;;;;;12.35;8.68;;;;;;;;;;5054063;28;20021;-71
2021/03/02 02:25:46;;;;;;;11.43;8.68;;;;;;;;;;5054080;28;20120;-69
2021/03/02 02:28:12;;;;;;;12.02;8.88;;;;;;;;;;5053991;28;20021;-71
2021/03/02 02:30:41;;;;;;;15.32;8.23;;;;;;;;;;5054243;28;20035;-72
2021/03/02 02:33:07;;;;;;;13.02;8.45;;;;;;;;;;5053891;28;20031;-71
2021/03/02 02:35:33;;;;;;;12.25;8.32;;;;;;;;;;5053859;28;20043;-72
2021/03/02 02:38:01;;;;;;;12.43;8.57;;;;;;;;;;5053893;28;20030;-72
2021/03/02 02:40:27;;;;;;;10.30;8.07;;;;;;;;;;5053852;28;20057;-72
2021/03/02 02:42:53;;;;;;;11.68;8.10;;;;;;;;;;5053638;28;20052;-71
2021/03/02 02:45:19;;;;;;;11.10;8.10;;;;;;;;;;5053817;28;20096;-71
2021/03/02 02:47:45;;;;;;;12.18;8.40;;;;;;;;;;5053898;28;20104;-71
2021/03/02 02:50:11;;;;;;;14.32;9.23;;;;;;;;;;5053690;28;20051;-71
2021/03/02 02:52:40;;;;;;;11.75;8.68;;;;;;;;;;5053620;28;20013;-71
2021/03/02 02:55:06;;;;;;;11.05;8.10;;;;;;;;;;5030728;28;20154;-72
2021/03/02 02:57:33;;;;;;;11.93;8.02;;;;;;;;;;5053530;28;20037;-71
2021/03/02 03:00:00;;;;;;;11.38;8.50;;;;;;;;;;5053534;28;20426;-71
2021/03/02 03:02:27;;;;;;;8.40;7.45;;;;;;;;;;5053408;28;20024;-71
2021/03/02 03:04:59;;;;;;;11.38;8.55;;;;;;;;;;5053372;28;20064;-71
2021/03/02 03:07:35;;;;;;;12.30;8.70;;;;;;;;;;5053486;28;20410;-71
2021/03/02 03:10:04;;;;;;;10.38;7.40;;;;;;;;;;5053557;28;20021;-71
2021/03/02 03:12:36;;;;;;;12.27;8.40;;;;;;;;;;5053382;28;20017;-71
2021/03/02 03:15:02;;;;;;;10.90;8.23;;;;;;;;;;5035640;28;20045;-71
2021/03/02 03:17:30;;;;;;;12.13;7.85;;;;;;;;;;5053428;28;20017;-72
2021/03/02 03:19:57;;;;;;;12.20;8.07;;;;;;;;;;5035831;28;20108;-71
2021/03/02 03:22:22;;;;;;;10.13;8.10;;;;;;;;;;5053288;28;20029;-71
2021/03/02 03:24:48;;;;;;;10.63;8.65;;;;;;;;;;5056118;28;20079;-71
2021/03/02 03:27:16;;;;;;;9.85;8.50;;;;;;;;;;5057404;28;20493;-71
2021/03/02 03:29:43;;;;;;;13.88;10.05;;;;;;;;;;5057297;28;20029;-71
2021/03/02 03:32:09;;;;;;;13.98;9.27;;;;;;;;;;5057169;28;20094;-71
2021/03/02 03:34:35;;;;;;;13.20;9.52;;;;;;;;;;5039637;28;20031;-71
2021/03/02 03:37:00;;;;;;;13.77;9.20;;;;;;;;;;5057152;28;20103;-71
2021/03/02 03:39:25;;;;;;;15.80;10.10;;;;;;;;;;5057174;28;20063;-70
2021/03/02 03:41:51;;;;;;;13.10;9.55;;;;;;;;;;5057170;28;20103;-70
2021/03/02 03:44:19;;;;;;;13.05;9.90;;;;;;;;;;5057117;28;20074;-71
2021/03/02 03:46:46;;;;;;;15.90;9.82;;;;;;;;;;5056945;28;20017;-71
2021/03/02 03:49:11;;;;;;;12.70;10.05;;;;;;;;;;5056973;28;20017;-71
2021/03/02 03:51:40;;;;;;;10.77;9.15;;;;;;;;;;5056864;28;20025;-71
2021/03/02 03:54:09;;;;;;;15.68;10.18;;;;;;;;;;5056805;28;20063;-71
2021/03/02 03:56:34;;;;;;;14.15;9.98;;;;;;;;;;5056880;28;20083;-71
2021/03/02 03:59:00;;;;;;;15.10;10.50;;;;;;;;;;5039124;28;20434;-71
2021/03/02 04:01:28;;;;;;;15.27;10.30;;;;;;;;;;5039179;28;20064;-71
2021/03/02 04:03:54;;;;;;;11.27;9.25;;;;;;;;;;5056626;28;20029;-71
2021/03/02 04:06:22;;;;;;;13.60;9.52;;;;;;;;;;5056694;28;20450;-71
2021/03/02 04:08:48;;;;;;;12.40;9.48;;;;;;;;;;5056708;28;20020;-71
2021/03/02 04:11:13;;;;;;;13.65;8.57;;;;;;;;;;5038961;28;20397;-71
2021/03/02 04:13:38;;;;;;;12.40;8.90;;;;;;;;;;5056554;28;20029;-71
2021/03/02 04:16:04;;;;;;;14.07;10.75;;;;;;;;;;5056281;28;20489;-72
2021/03/02 04:18:31;;;;;;;11.60;9.68;;;;;;;;;;5056367;28;20358;-72
2021/03/02 04:21:00;;;;;;;14.45;10.32;;;;;;;;;;5056458;28;20021;-71
2021/03/02 04:23:25;;;;;;;14.95;10.43;;;;;;;;;;5056293;28;20105;-72
2021/03/02 04:25:51;;;;;;;16.17;10.48;;;;;;;;;;5056319;28;20051;-71
2021/03/02 04:28:21;;;;;;;16.17;11.00;;;;;;;;;;5056214;28;20017;-71
2021/03/02 04:30:46;;;;;;;16.13;11.32;;;;;;;;;;5056154;28;20350;-71
2021/03/02 04:33:14;;;;;;;14.55;10.70;;;;;;;;;;5056136;28;20017;-72
2021/03/02 04:35:41;;;;;;;12.80;10.38;;;;;;;;;;5055631;28;20040;-71
2021/03/02 04:38:09;;;;;;;14.85;11.00;;;;;;;;;;5056101;28;20013;-71
2021/03/02 04:40:34;;;;;;;14.70;11.27;;;;;;;;;;5055994;28;20070;-70
2021/03/02 04:43:02;;;;;;;18.83;11.60;;;;;;;;;;5055937;28;20025;-70
2021/03/02 04:45:27;;;;;;;14.60;10.57;;;;;;;;;;5038680;28;20347;-71
2021/03/02 04:47:52;;;;;;;16.55;11.45;;;;;;;;;;5055837;28;20090;-71
2021/03/02 04:50:17;;;;;;;13.38;11.13;;;;;;;;;;5056180;28;20454;-70
2021/03/02 04:52:43;;;;;;;15.48;11.20;;;;;;;;;;5047739;28;20025;-70
2021/03/02 04:55:09;;;;;;;16.60;11.82;;;;;;;;;;5039282;28;20033;-72
2021/03/02 04:57:37;;;;;;;14.52;11.80;;;;;;;;;;5026748;28;20350;-70
2021/03/02 05:00:03;;;;;;;15.18;11.68;;;;;;;;;;5029563;28;20053;-70
2021/03/02 05:02:28;;;;;;;16.98;12.57;;;;;;;;;;5034693;28;20100;-70
2021/03/02 05:04:54;;;;;;;18.42;12.70;;;;;;;;;;5052345;28;20036;-70
2021/03/02 05:07:19;;;;;;;16.58;12.82;;;;;;;;;;5056040;28;20021;-70
2021/03/02 05:09:44;;;;;;;15.70;11.90;;;;;;;;;;5056113;28;20021;-71
2021/03/02 05:12:10;;;;;;;19.85;12.02;;;;;;;;;;5056245;28;20020;-71
2021/03/02 05:14:35;;;;;;;18.38;13.18;;;;;;;;;;5056096;28;20466;-71
2021/03/02 05:17:00;;;;;;;17.55;11.85;;;;;;;;;;5055417;28;20021;-72
2021/03/02 05:19:28;;;;;;;15.43;11.48;;;;;;;;;;5037944;28;20075;-71
2021/03/02 05:21:53;;;;;;;15.70;12.68;;;;;;;;;;5055182;28;20028;-71
2021/03/02 05:24:21;;;;;;;15.52;11.95;;;;;;;;;;5055195;28;20357;-70
2021/03/02 05:26:46;;;;;;;16.10;12.85;;;;;;;;;;5055102;28;20017;-70
2021/03/02 05:29:11;;;;;;;21.17;14.70;;;;;;;;;;5055423;28;20099;-70
2021/03/02 05:31:36;;;;;;;19.77;13.23;;;;;;;;;;5055059;28;20016;-69
2021/03/02 05:34:02;;;;;;;22.75;13.52;;;;;;;;;;5054949;28;20033;-72
2021/03/02 05:36:27;;;;;;;19.42;13.38;;;;;;;;;;5037409;28;20025;-70
2021/03/02 05:38:54;;;;;;;20.58;13.73;;;;;;;;;;5054922;28;20422;-70
2021/03/02 05:41:20;;;;;;;19.67;14.30;;;;;;;;;;5054865;28;20100;-70
2021/03/02 05:43:45;;;;;;;30.30;17.13;;;;;;;;;;5037121;28;20112;-71
2021/03/02 05:46:14;;;;;;;23.60;17.15;;;;;;;;;;5053878;28;20024;-69
2021/03/02 05:48:42;;;;;;;22.42;16.67;;;;;;;;;;5054608;28;20112;-70
2021/03/02 05:51:08;;;;;;;16.15;14.05;;;;;;;;;;5037112;28;20346;-70
2021/03/02 05:53:36;;;;;;;19.95;14.02;;;;;;;;;;5037055;28;20021;-69
2021/03/02 05:56:01;;;;;;;21.38;14.52;;;;;;;;;;5054625;28;20135;-70
2021/03/02 05:58:27;;;;;;;16.95;14.13;;;;;;;;;;5054667;28;20445;-69
2021/03/02 06:00:53;;;;;;;19.15;15.00;;;;;;;;;;5054477;28;20390;-69
2021/03/02 06:03:18;;;;;;;19.00;14.52;;;;;;;;;;5054437;28;20398;-70
2021/03/02 06:05:44;;;;;;;19.73;14.25;;;;;;;;;;5054472;28;20096;-70
2021/03/02 06:08:09;;;;;;;20.30;15.10;;;;;;;;;;5054276;28;20108;-70
2021/03/02 06:10:35;;;;;;;19.52;14.70;;;;;;;;;;5054316;28;20327;-71
2021/03/02 06:13:00;;;;;;;19.85;15.15;;;;;;;;;;5054364;28;20437;-70
2021/03/02 06:15:26;;;;;;;20.80;14.45;;;;;;;;;;5054418;28;20053;-69
2021/03/02 06:18:10;;;;;;;19.10;14.77;;;;;;;;;;5054287;28;20091;-69
2021/03/02 06:20:36;;;;;;;20.70;14.50;;;;;;;;;;5054205;28;20491;-69
2021/03/02 06:23:20;;;;;;;19.67;15.02;;;;;;;;;;5054088;28;20020;-69
2021/03/02 06:25:46;;;;;;;17.35;14.70;;;;;;;;;;5054040;28;20342;-70
2021/03/02 06:28:11;;;;;;;19.55;14.93;;;;;;;;;;5054040;28;20017;-69
2021/03/02 06:30:37;;;;;;;20.35;15.50;;;;;;;;;;5054037;28;20020;-70
2021/03/02 06:33:02;;;;;;;18.65;14.25;;;;;;;;;;5053883;28;20028;-70
2021/03/02 06:35:35;;;;;;;22.88;14.50;;;;;;;;;;5053831;28;20028;-70
2021/03/02 06:38:02;;;;;;;18.02;14.02;;;;;;;;;;5029729;28;20041;-70
2021/03/02 06:40:46;;;;;;;18.55;14.63;;;;;;;;;;5043615;28;20468;-70
2021/03/02 06:43:29;;;;;;;20.95;14.95;;;;;;;;;;5050928;28;20035;-70
2021/03/02 06:45:55;;;;;;;18.60;14.60;;;;;;;;;;5046522;28;20024;-70
2021/03/02 06:48:20;;;;;;;16.40;13.75;;;;;;;;;;5038766;28;20088;-69
2021/03/02 06:50:46;;;;;;;18.25;15.13;;;;;;;;;;5048478;28;20045;-71
2021/03/02 06:53:13;;;;;;;18.98;13.85;;;;;;;;;;5049431;28;20033;-70
2021/03/02 06:55:40;;;;;;;22.92;14.00;;;;;;;;;;5042169;28;20033;-68
2021/03/02 06:58:16;;;;;;;20.05;14.77;;;;;;;;;;5039095;28;20078;-69
2021/03/02 07:00:47;;;;;;;17.42;13.98;;;;;;;;;;5042868;28;20052;-70
2021/03/02 07:03:22;;;;;;;18.73;13.05;;;;;;;;;;5039126;28;20026;-70
2021/03/02 07:05:48;;;;;;;18.77;14.38;;;;;;;;;;5045674;28;20020;-69
2021/03/02 07:08:13;;;;;;;19.75;14.23;;;;;;;;;;5043211;28;20070;-70
2021/03/02 07:10:38;;;;;;;18.80;13.70;;;;;;;;;;5043803;28;20021;-70
2021/03/02 07:13:04;;;;;;;19.42;13.15;;;;;;;;;;5032550;28;20029;-70
2021/03/02 07:15:30;;;;;;;16.63;13.88;;;;;;;;;;5032895;28;20125;-70
2021/03/02 07:17:56;;;;;;;19.90;14.57;;;;;;;;;;5029366;28;20026;-69
2021/03/02 07:20:23;;;;;;;19.08;13.70;;;;;;;;;;5053397;28;20023;-69
2021/03/02 07:22:50;;;;;;;16.45;13.32;;;;;;;;;;5053285;28;20100;-71
2021/03/02 07:25:20;;;;;;;18.52;13.35;;;;;;;;;;5053325;28;20052;-71
2021/03/02 07:27:47;;;;;;;17.13;14.00;;;;;;;;;;5041263;28;20021;-70
2021/03/02 07:30:13;;;;;;;18.85;13.65;;;;;;;;;;5023718;28;20017;-69
2021/03/02 07:32:39;;;;;;;17.17;12.55;;;;;;;;;;5025504;28;20018;-69
2021/03/02 07:35:05;;;;;;;16.10;13.18;;;;;;;;;;5042656;28;20151;-68
2021/03/02 07:37:31;;;;;;;21.65;13.20;;;;;;;;;;5052922;28;20067;-69
2021/03/02 07:40:00;;;;;;;19.80;12.52;;;;;;;;;;5053762;28;20426;-69
2021/03/02 07:42:25;;;;;;;17.90;13.63;;;;;;;;;;5054363;28;20091;-70
2021/03/02 07:45:01;;;;;;;17.02;12.07;;;;;;;;;;5052744;28;20455;-70
2021/03/02 07:47:45;;;;;;;15.13;12.02;;;;;;;;;;5048444;28;20033;-70
2021/03/02 07:50:25;;;;;;;16.27;13.13;;;;;;;;;;5046899;28;20009;-69
2021/03/02 07:53:11;;;;;;;16.35;11.82;;;;;;;;;;5033245;28;20028;-70
2021/03/02 07:55:38;;;;;;;17.00;12.73;;;;;;;;;;5019195;28;20580;-70
2021/03/02 07:58:16;;;;;;;15.18;12.85;;;;;;;;;;5035438;28;20018;-69
2021/03/02 08:00:42;;;;;;;16.33;12.80;;;;;;;;;;5036324;28;20036;-69
2021/03/02 08:03:21;;;;;;;15.95;11.73;;;;;;;;;;5039162;28;20388;-70
2021/03/02 08:05:52;;;;;;;18.20;11.70;;;;;;;;;;5052817;28;20104;-69
2021/03/02 08:08:26;;;;;;;14.35;11.93;;;;;;;;;;5035175;28;20082;-70
2021/03/02 08:10:54;;;;;;;14.13;11.75;;;;;;;;;;5055519;28;20412;-69
2021/03/02 08:13:38;;;;;;;17.50;12.32;;;;;;;;;;5056472;28;20032;-69
2021/03/02 08:16:08;;;;;;;14.70;11.80;;;;;;;;;;5043238;28;20047;-69
2021/03/02 08:18:34;;;;;;;16.15;11.88;;;;;;;;;;5036367;28;20160;-70
2021/03/02 08:21:03;;;;;;;14.52;10.73;;;;;;;;;;5036704;28;20323;-69
2021/03/02 08:23:44;;;;;;;13.90;11.23;;;;;;;;;;5036373;28;20118;-69
2021/03/02 08:26:20;;;;;;;15.13;11.00;;;;;;;;;;5042713;28;20024;-70
2021/03/02 08:29:04;;;;;;;16.08;12.27;;;;;;;;;;5056244;28;20412;-69
2021/03/02 08:31:32;;;;;;;14.77;10.40;;;;;;;;;;5038602;28;20032;-70
2021/03/02 08:34:00;;;;;;;14.43;11.00;;;;;;;;;;5056142;28;20036;-70
2021/03/02 08:36:26;;;;;;;14.35;11.20;;;;;;;;;;5055973;28;20365;-69
2021/03/02 08:38:54;;;;;;;15.98;11.43;;;;;;;;;;5056113;28;20017;-69
2021/03/02 08:41:29;;;;;;;14.55;10.95;;;;;;;;;;5043479;28;20455;-70
2021/03/02 08:43:54;;;;;;;14.93;11.20;;;;;;;;;;5045329;28;20022;-70
2021/03/02 08:46:38;;;;;;;13.77;10.73;;;;;;;;;;5037597;28;20017;-70
2021/03/02 08:49:12;;;;;;;23.70;16.27;;;;;;;;;;5035888;28;20029;-69
2021/03/02 08:51:37;;;;;;;18.42;13.98;;;;;;;;;;5035981;28;20018;-69
2021/03/02 08:54:03;;;;;;;17.45;10.27;;;;;;;;;;5055531;28;20121;-69
2021/03/02 08:56:28;;;;;;;16.27;10.70;;;;;;;;;;5036762;28;20029;-70
2021/03/02 08:58:54;;;;;;;13.13;10.25;;;;;;;;;;5035694;28;20022;-70
2021/03/02 09:01:22;;;;;;;13.43;11.02;;;;;;;;;;5034692;28;20017;-70
2021/03/02 09:03:49;;;;;;;27.42;17.48;;;;;;;;;;5035594;28;20017;-70
2021/03/02 09:06:16;;;;;;;15.25;11.90;;;;;;;;;;5035496;28;20018;-70
2021/03/02 09:08:41;;;;;;;18.63;14.52;;;;;;;;;;5035594;28;20013;-70
2021/03/02 09:11:07;;;;;;;18.00;10.32;;;;;;;;;;5038489;28;20017;-70
2021/03/02 09:13:35;;;;;;;13.40;10.10;;;;;;;;;;5052715;28;20477;-70
2021/03/02 09:16:01;;;;;;;16.90;10.90;;;;;;;;;;5040535;28;20053;-70
2021/03/02 09:18:26;;;;;;;13.70;9.57;;;;;;;;;;5050719;28;20354;-70
2021/03/02 09:20:54;;;;;;;11.63;9.75;;;;;;;;;;5051609;28;20031;-70
2021/03/02 09:23:20;;;;;;;12.77;9.80;;;;;;;;;;5054109;28;20032;-69
2021/03/02 09:25:45;;;;;;;13.63;10.15;;;;;;;;;;5054818;28;20032;-71
2021/03/02 09:28:19;;;;;;;12.55;9.88;;;;;;;;;;5054647;28;20021;-70
2021/03/02 09:30:45;;;;;;;11.52;9.35;;;;;;;;;;5046425;28;20129;-71
2021/03/02 09:33:12;;;;;;;11.30;9.23;;;;;;;;;;5054651;28;20424;-70
2021/03/02 09:35:40;;;;;;;11.57;9.80;;;;;;;;;;5051588;28;20449;-70
2021/03/02 09:38:05;;;;;;;16.48;10.15;;;;;;;;;;5037314;28;20410;-70
2021/03/02 09:40:45;;;;;;;14.10;9.68;;;;;;;;;;5047985;28;20056;-71
2021/03/02 09:43:12;;;;;;;10.30;9.10;;;;;;;;;;5050810;28;20355;-71
2021/03/02 09:45:37;;;;;;;14.55;10.27;;;;;;;;;;5044345;28;20101;-71
2021/03/02 09:48:08;;;;;;;14.63;9.88;;;;;;;;;;5040971;28;20092;-71
2021/03/02 09:50:35;;;;;;;16.75;10.13;;;;;;;;;;5025385;28;20021;-71
2021/03/02 09:53:10;;;;;;;15.25;9.52;;;;;;;;;;5025960;28;20043;-72
2021/03/02 09:55:35;;;;;;;12.15;9.32;;;;;;;;;;5023461;28;20769;-71
2021/03/02 09:58:12;;;;;;;11.43;9.40;;;;;;;;;;5028028;28;20096;-71
2021/03/02 10:00:48;;;;;;;12.60;9.70;;;;;;;;;;5039252;28;20020;-70
2021/03/02 10:03:14;;;;;;;12.43;9.00;;;;;;;;;;5043265;28;20485;-70
2021/03/02 10:05:54;;;;;;;12.23;9.23;;;;;;;;;;5034716;28;20028;-70
2021/03/02 10:08:27;;;;;;;11.80;8.75;;;;;;;;;;5033265;28;20021;-69
2021/03/02 10:10:55;;;;;;;11.05;8.48;;;;;;;;;;5034206;28;20017;-71
2021/03/02 10:13:21;;;;;;;18.38;9.55;;;;;;;;;;5050072;28;20090;-70
2021/03/02 10:16:09;;;;;;;11.65;9.20;;;;;;;;;;5031039;28;20048;-71
2021/03/02 10:18:35;;;;;;;10.02;8.55;;;;;;;;;;5014534;28;20074;-71
2021/03/02 10:21:01;;;;;;;14.93;9.23;;;;;;;;;;5014216;28;20049;-71
2021/03/02 10:23:29;;;;;;;10.77;8.00;;;;;;;;;;5014255;28;20026;-71
2021/03/02 10:25:55;;;;;;;15.15;8.55;;;;;;;;;;5014332;28;20105;-71
2021/03/02 10:28:28;;;;;;;11.63;8.73;;;;;;;;;;5016241;28;20022;-70
2021/03/02 10:30:54;;;;;;;10.38;8.80;;;;;;;;;;5027215;28;20086;-71
2021/03/02 10:33:19;;;;;;;12.57;8.88;;;;;;;;;;5033449;28;20026;-71
2021/03/02 10:35:45;;;;;;;10.88;8.60;;;;;;;;;;5032550;28;20040;-71
2021/03/02 10:38:10;;;;;;;13.15;8.80;;;;;;;;;;5034313;28;20017;-70
2021/03/02 10:40:35;;;;;;;11.00;8.83;;;;;;;;;;5033977;28;20033;-70
2021/03/02 10:43:00;;;;;;;12.10;9.03;;;;;;;;;;5033831;28;20302;-70
2021/03/02 10:45:25;;;;;;;11.77;9.50;;;;;;;;;;5031130;28;20260;-70
2021/03/02 10:47:53;;;;;;;11.15;8.25;;;;;;;;;;5016697;28;20716;-69
2021/03/02 10:50:18;;;;;;;12.18;8.90;;;;;;;;;;5022817;28;20025;-70
2021/03/02 10:52:43;;;;;;;13.03;8.50;;;;;;;;;;5022294;28;20022;-70
2021/03/02 10:55:09;;;;;;;10.73;8.30;;;;;;;;;;5032936;28;20729;-69
2021/03/02 10:57:34;;;;;;;11.40;8.95;;;;;;;;;;5033688;28;20359;-69
2021/03/02 11:00:01;;;;;;;12.93;8.95;;;;;;;;;;5033373;28;20028;-70
2021/03/02 11:02:27;;;;;;;22.15;15.77;;;;;;;;;;5033212;28;20033;-70
2021/03/02 11:04:52;;;;;;;13.00;9.75;;;;;;;;;;5032235;28;20021;-70
2021/03/02 11:07:17;;;;;;;12.73;9.03;;;;;;;;;;5029203;28;20040;-70
2021/03/02 11:09:42;;;;;;;11.52;9.48;;;;;;;;;;5033337;28;20260;-69
2021/03/02 11:12:08;;;;;;;13.63;9.50;;;;;;;;;;5033538;28;20021;-70
2021/03/02 11:14:34;;;;;;;14.75;9.40;;;;;;;;;;5023048;28;20358;-76
2021/03/02 11:16:59;;;;;;;13.67;8.43;;;;;;;;;;5033856;28;20036;-74
2021/03/02 11:19:24;;;;;;;13.68;9.27;;;;;;;;;;5033546;28;20256;-70
2021/03/02 11:21:49;;;;;;;12.60;9.03;;;;;;;;;;5033590;28;20124;-71
2021/03/02 11:24:14;;;;;;;13.57;9.43;;;;;;;;;;5033368;28;20294;-70
2021/03/02 11:26:40;;;;;;;13.73;9.68;;;;;;;;;;5033382;28;20318;-70
2021/03/02 11:29:05;;;;;;;14.27;9.35;;;;;;;;;;5015963;28;20025;-71
2021/03/02 11:31:30;;;;;;;12.98;9.43;;;;;;;;;;5043997;28;20405;-71
2021/03/02 11:33:56;;;;;;;12.30;8.35;;;;;;;;;;5039203;28;20040;-70
2021/03/02 11:36:21;;;;;;;12.63;8.52;;;;;;;;;;5033103;28;20014;-69
2021/03/02 11:38:46;;;;;;;9.70;7.83;;;;;;;;;;5033597;28;20022;-69
2021/03/02 11:41:11;;;;;;;11.43;8.23;;;;;;;;;;5033374;28;20474;-68
2021/03/02 11:43:37;;;;;;;10.47;8.40;;;;;;;;;;5033276;28;20028;-69
2021/03/02 11:46:02;;;;;;;10.40;7.73;;;;;;;;;;5035672;28;20035;-68
2021/03/02 11:48:30;;;;;;;12.57;8.13;;;;;;;;;;5037139;28;20577;-69
2021/03/02 11:50:55;;;;;;;10.38;7.80;;;;;;;;;;5037105;28;20021;-69
2021/03/02 11:53:21;;;;;;;11.20;8.23;;;;;;;;;;5037037;28;20044;-68
2021/03/02 11:55:46;;;;;;;12.87;7.03;;;;;;;;;;5037102;28;20472;-68
2021/03/02 11:58:13;;;;;;;8.30;7.10;;;;;;;;;;5037011;28;20017;-68
2021/03/02 12:00:43;;;;;;;7.97;6.90;;;;;;;;;;5036982;28;20057;-68
2021/03/02 12:03:08;;;;;;;10.35;7.90;;;;;;;;;;5042726;28;20029;-68
2021/03/02 12:05:33;;;;;;;9.82;8.45;;;;;;;;;;5050588;28;20101;-68
2021/03/02 12:07:58;;;;;;;11.00;8.25;;;;;;;;;;5052044;28;20458;-68
2021/03/02 12:10:26;;;;;;;10.20;8.10;;;;;;;;;;5048104;28;20032;-69
2021/03/02 12:12:51;;;;;;;9.27;7.43;;;;;;;;;;5054970;28;20442;-68
2021/03/02 12:15:17;;;;;;;10.07;7.63;;;;;;;;;;5054327;28;20056;-70
2021/03/02 12:17:42;;;;;;;10.20;7.78;;;;;;;;;;5056518;28;20739;-70
2021/03/02 12:20:11;;;;;;;11.80;8.20;;;;;;;;;;5053750;28;20075;-69
2021/03/02 12:22:37;;;;;;;13.07;9.07;;;;;;;;;;5043342;28;20044;-68
2021/03/02 12:25:03;;;;;;;12.82;8.43;;;;;;;;;;5056121;28;20024;-68
2021/03/02 12:27:31;;;;;;;11.73;8.45;;;;;;;;;;5056034;28;20456;-69
2021/03/02 12:29:56;;;;;;;10.57;7.78;;;;;;;;;;5056112;28;20083;-69
2021/03/02 12:32:22;;;;;;;18.02;8.25;;;;;;;;;;5055893;28;20444;-69
2021/03/02 12:34:47;;;;;;;15.35;8.57;;;;;;;;;;5038474;28;20025;-68
2021/03/02 12:37:12;;;;;;;13.63;9.23;;;;;;;;;;5056024;28;20361;-69
2021/03/02 12:39:37;;;;;;;10.33;8.87;;;;;;;;;;5055959;28;20290;-69
2021/03/02 12:42:03;;;;;;;16.37;9.40;;;;;;;;;;5019946;28;20284;-69
2021/03/02 12:44:28;;;;;;;14.13;8.68;;;;;;;;;;5051429;28;20299;-69
2021/03/02 12:46:56;;;;;;;12.70;8.85;;;;;;;;;;5031543;28;20354;-76
2021/03/02 12:49:21;;;;;;;12.68;9.55;;;;;;;;;;5055573;28;20573;-78
2021/03/02 12:51:49;;;;;;;61.45;14.63;;;;;;;;;;5055834;28;20094;-69
2021/03/02 12:54:14;;;;;;;13.82;9.35;;;;;;;;;;5055674;28;20017;-69
2021/03/02 12:56:41;;;;;;;12.80;9.10;;;;;;;;;;5051823;28;20017;-69
2021/03/02 12:59:11;;;;;;;17.25;9.70;;;;;;;;;;5052701;28;20021;-68
2021/03/02 13:01:36;;;;;;;22.77;10.35;;;;;;;;;;5027287;28;20091;-69
2021/03/02 13:04:02;;;;;;;26.35;9.80;;;;;;;;;;5055417;28;20028;-69
2021/03/02 13:06:28;;;;;;;14.13;9.20;;;;;;;;;;5055769;28;20409;-70
2021/03/02 13:08:54;;;;;;;13.68;8.80;;;;;;;;;;5038186;28;20112;-69
2021/03/02 13:11:19;;;;;;;15.02;9.02;;;;;;;;;;5054750;28;20071;-68
2021/03/02 13:13:45;;;;;;;13.25;8.90;;;;;;;;;;5043426;28;20379;-67
2021/03/02 13:16:13;;;;;;;11.88;9.15;;;;;;;;;;5035195;28;20111;-68
2021/03/02 13:18:38;;;;;;;12.00;9.35;;;;;;;;;;5017912;28;20037;-70
2021/03/02 13:21:03;;;;;;;13.57;9.70;;;;;;;;;;5041332;28;20017;-68
2021/03/02 13:23:29;;;;;;;18.63;9.57;;;;;;;;;;5037557;28;20395;-69
2021/03/02 13:25:55;;;;;;;13.95;9.85;;;;;;;;;;5055234;28;20021;-69
2021/03/02 13:28:25;;;;;;;18.13;9.60;;;;;;;;;;5054941;28;20005;-70
2021/03/02 13:30:51;;;;;;;16.98;10.55;;;;;;;;;;5049986;28;20438;-68
2021/03/02 13:33:17;;;;;;;20.98;9.85;;;;;;;;;;5048260;28;20040;-66
2021/03/02 13:35:45;;;;;;;14.15;10.05;;;;;;;;;;5055040;28;20029;-67
2021/03/02 13:38:15;;;;;;;14.80;8.88;;;;;;;;;;5051574;28;20014;-67
2021/03/02 13:40:41;;;;;;;15.27;11.70;;;;;;;;;;5053527;28;20020;-67
2021/03/02 13:43:09;;;;;;;14.88;8.98;;;;;;;;;;5054742;28;20369;-68
2021/03/02 13:45:34;;;;;;;14.23;9.70;;;;;;;;;;5049161;28;20332;-68
2021/03/02 13:48:02;;;;;;;25.55;10.35;;;;;;;;;;5017290;28;20083;-68
2021/03/02 13:50:27;;;;;;;13.70;8.70;;;;;;;;;;5052655;28;20512;-67
2021/03/02 13:52:53;;;;;;;16.38;8.90;;;;;;;;;;5054647;28;20108;-68
2021/03/02 13:55:20;;;;;;;14.05;9.52;;;;;;;;;;5054580;28;20016;-67
2021/03/02 13:57:45;;;;;;;17.50;9.05;;;;;;;;;;5054550;28;20012;-68
2021/03/02 14:00:14;;;;;;;16.13;8.70;;;;;;;;;;5050873;28;20479;-67
2021/03/02 14:02:41;;;;;;;14.45;8.50;;;;;;;;;;5051927;28;20096;-68
2021/03/02 14:05:06;;;;;;;12.05;8.90;;;;;;;;;;5040457;28;20022;-67
2021/03/02 14:07:32;;;;;;;14.95;8.45;;;;;;;;;;5034029;28;20523;-68
2021/03/02 14:09:58;;;;;;;14.95;8.82;;;;;;;;;;5040921;28;20025;-68
2021/03/02 14:12:23;;;;;;;14.05;9.40;;;;;;;;;;5041878;28;20009;-68
2021/03/02 14:14:49;;;;;;;11.20;8.38;;;;;;;;;;5045475;28;20445;-67
2021/03/02 14:17:17;;;;;;;11.35;8.23;;;;;;;;;;5039085;28;20021;-68
2021/03/02 14:19:42;;;;;;;14.20;9.23;;;;;;;;;;5053944;28;20153;-69
2021/03/02 14:22:07;;;;;;;10.60;8.60;;;;;;;;;;5036456;28;20025;-68
2021/03/02 14:24:33;;;;;;;14.07;8.55;;;;;;;;;;5047989;28;20021;-68
2021/03/02 14:26:58;;;;;;;14.63;9.10;;;;;;;;;;5034061;28;20044;-67